createdAt,value
2018-10-18T00:00:03.455Z,23.36
2018-10-18T00:02:35.767Z,23.36
2018-10-18T00:05:08.980Z,23.43
2018-10-18T00:07:41.154Z,23.30
2018-10-18T00:10:13.768Z,23.16
2018-10-18T00:12:46.391Z,23.19
2018-10-18T00:15:18.537Z,23.14
2018-10-18T00:17:50.730Z,23.07
2018-10-18T00:20:22.857Z,22.98
2018-10-18T00:22:55.139Z,22.97
2018-10-18T00:25:27.278Z,22.93
2018-10-18T00:27:59.842Z,23.05
2018-10-18T00:30:31.783Z,23.14
2018-10-18T00:33:05.000Z,23.19
2018-10-18T00:35:37.042Z,23.38
2018-10-18T00:38:09.228Z,23.35
2018-10-18T00:40:41.832Z,23.31
2018-10-18T00:43:14.121Z,23.39
2018-10-18T00:45:46.185Z,23.27
2018-10-18T00:48:18.345Z,23.21
2018-10-18T00:50:50.745Z,23.20
2018-10-18T00:53:23.876Z,23.07
2018-10-18T00:55:55.864Z,23.06
2018-10-18T00:58:28.483Z,23.01
2018-10-18T01:01:00.727Z,22.96
2018-10-18T01:03:32.899Z,22.96
2018-10-18T01:06:04.927Z,23.11
2018-10-18T01:08:37.331Z,23.16
2018-10-18T01:11:09.738Z,23.12
2018-10-18T01:13:41.738Z,23.14
2018-10-18T01:16:14.033Z,23.33
2018-10-18T01:18:46.402Z,23.47
2018-10-18T01:21:18.540Z,23.54
2018-10-18T01:23:50.936Z,23.50
2018-10-18T01:26:23.091Z,23.65
2018-10-18T01:28:55.761Z,23.67
2018-10-18T01:31:29.065Z,23.67
2018-10-18T01:34:01.404Z,23.70
2018-10-18T01:36:34.079Z,23.70
2018-10-18T01:39:07.642Z,23.64
2018-10-18T01:41:40.563Z,23.52
2018-10-18T01:44:13.279Z,23.92
2018-10-18T01:46:46.156Z,24.12
2018-10-18T01:49:18.252Z,24.09
2018-10-18T01:51:50.598Z,23.98
2018-10-18T01:54:22.985Z,24.25
2018-10-18T01:56:55.104Z,24.37
2018-10-18T01:59:27.551Z,24.25
2018-10-18T02:01:59.957Z,24.23
2018-10-18T02:04:32.614Z,24.36
2018-10-18T02:07:05.095Z,24.52
2018-10-18T02:09:37.272Z,24.66
2018-10-18T02:12:10.703Z,24.80
2018-10-18T02:14:43.492Z,24.85
2018-10-18T02:17:15.616Z,25.01
2018-10-18T02:19:47.927Z,25.17
2018-10-18T02:22:20.365Z,25.32
2018-10-18T02:24:52.573Z,25.57
2018-10-18T02:27:24.482Z,26.00
2018-10-18T02:29:57.100Z,26.12
2018-10-18T02:32:29.641Z,26.19
2018-10-18T02:35:02.403Z,26.43
2018-10-18T02:37:34.604Z,26.52
2018-10-18T02:40:07.050Z,26.63
2018-10-18T02:42:39.715Z,26.63
2018-10-18T02:45:12.034Z,26.55
2018-10-18T02:47:44.034Z,26.67
2018-10-18T02:50:15.825Z,26.80
2018-10-18T02:52:48.187Z,27.02
2018-10-18T02:55:20.504Z,27.06
2018-10-18T02:57:52.628Z,26.95
2018-10-18T03:00:24.941Z,27.14
2018-10-18T03:02:57.133Z,27.25
2018-10-18T03:05:29.217Z,27.55
2018-10-18T03:08:00.950Z,27.48
2018-10-18T03:10:33.729Z,27.78
2018-10-18T03:13:07.071Z,27.74
2018-10-18T03:15:39.292Z,27.88
2018-10-18T03:18:11.221Z,27.79
2018-10-18T03:20:43.408Z,28.32
2018-10-18T03:23:15.530Z,28.43
2018-10-18T03:25:47.634Z,28.30
2018-10-18T03:28:19.547Z,28.17
2018-10-18T03:30:51.744Z,28.66
2018-10-18T03:33:23.838Z,28.57
2018-10-18T03:35:57.372Z,28.54
2018-10-18T03:38:30.596Z,28.88
2018-10-18T03:41:02.713Z,28.84
2018-10-18T03:43:35.212Z,29.15
2018-10-18T03:46:07.216Z,29.26
2018-10-18T03:48:38.949Z,29.55
2018-10-18T03:51:11.073Z,29.60
2018-10-18T03:53:42.787Z,29.78
2018-10-18T03:56:14.886Z,30.13
2018-10-18T03:58:46.967Z,30.01
2018-10-18T04:01:18.796Z,29.84
2018-10-18T04:03:50.537Z,30.07
2018-10-18T04:06:22.593Z,30.41
2018-10-18T04:08:54.435Z,30.45
2018-10-18T04:11:26.480Z,30.60
2018-10-18T04:13:58.898Z,30.51
2018-10-18T04:16:31.345Z,30.63
2018-10-18T04:19:03.316Z,30.85
2018-10-18T04:21:35.411Z,31.15
2018-10-18T04:24:07.461Z,31.33
2018-10-18T04:26:39.521Z,31.55
2018-10-18T04:29:11.286Z,31.67
2018-10-18T04:31:43.365Z,31.52
2018-10-18T04:34:15.364Z,31.32
2018-10-18T04:36:47.871Z,31.55
2018-10-18T04:39:19.949Z,31.67
2018-10-18T04:41:52.300Z,31.94
2018-10-18T04:44:24.988Z,31.90
2018-10-18T04:46:58.106Z,32.24
2018-10-18T04:49:30.084Z,31.97
2018-10-18T04:52:02.189Z,31.97
2018-10-18T04:55:58.389Z,32.12
2018-10-18T04:58:30.766Z,32.29
2018-10-18T05:01:02.753Z,32.26
2018-10-18T05:03:35.588Z,32.47
2018-10-18T05:06:07.662Z,32.88
2018-10-18T05:08:39.816Z,32.90
2018-10-18T05:11:11.799Z,32.88
2018-10-18T05:13:43.874Z,32.68
2018-10-18T05:16:16.581Z,32.88
2018-10-18T05:18:48.724Z,32.89
2018-10-18T05:21:20.389Z,32.98
2018-10-18T05:23:52.634Z,33.27
2018-10-18T05:26:24.389Z,33.52
2018-10-18T05:28:56.615Z,33.16
2018-10-18T05:31:28.631Z,33.69
2018-10-18T05:34:00.836Z,34.24
2018-10-18T05:36:32.801Z,33.63
2018-10-18T05:39:05.331Z,33.95
2018-10-18T05:41:37.377Z,34.14
2018-10-18T05:44:09.321Z,34.20
2018-10-18T05:46:42.461Z,34.03
2018-10-18T05:49:14.687Z,34.11
2018-10-18T05:51:46.961Z,34.57
2018-10-18T05:54:18.804Z,34.32
2018-10-18T05:56:50.960Z,34.48
2018-10-18T05:59:22.885Z,34.45
2018-10-18T06:01:54.991Z,34.42
2018-10-18T06:04:27.691Z,34.38
2018-10-18T06:07:00.046Z,34.61
2018-10-18T06:09:33.686Z,34.60
2018-10-18T06:12:05.828Z,34.93
2018-10-18T06:14:38.109Z,35.27
2018-10-18T06:17:10.523Z,35.16
2018-10-18T06:19:42.977Z,35.37
2018-10-18T06:22:15.162Z,35.25
2018-10-18T06:24:47.143Z,35.51
2018-10-18T06:27:19.140Z,36.08
2018-10-18T06:29:51.306Z,35.82
2018-10-18T06:32:23.555Z,35.86
2018-10-18T06:34:56.419Z,36.00
2018-10-18T06:37:28.800Z,36.38
2018-10-18T06:40:01.116Z,36.56
2018-10-18T06:42:33.328Z,36.34
2018-10-18T06:45:06.098Z,35.77
2018-10-18T06:47:41.185Z,35.91
2018-10-18T06:50:18.797Z,36.09
2018-10-18T06:52:51.128Z,36.54
2018-10-18T06:55:24.063Z,36.59
2018-10-18T06:57:56.853Z,36.44
2018-10-18T07:00:29.500Z,36.10
2018-10-18T07:03:03.411Z,36.84
2018-10-18T07:05:35.697Z,37.09
2018-10-18T07:08:08.616Z,37.02
2018-10-18T07:10:40.693Z,36.84
2018-10-18T07:13:13.491Z,37.53
2018-10-18T07:15:45.662Z,37.74
2018-10-18T07:18:18.306Z,37.47
2018-10-18T07:20:50.855Z,37.68
2018-10-18T07:23:23.037Z,37.84
2018-10-18T07:25:55.210Z,38.02
2018-10-18T07:28:27.486Z,37.75
2018-10-18T07:30:59.821Z,37.79
2018-10-18T07:33:32.238Z,38.45
2018-10-18T07:36:04.426Z,38.17
2018-10-18T07:38:38.331Z,37.84
2018-10-18T07:43:42.100Z,38.29
2018-10-18T07:46:14.321Z,38.60
2018-10-18T07:51:19.436Z,39.00
2018-10-18T07:53:51.955Z,38.86
2018-10-18T07:56:24.184Z,38.76
2018-10-18T07:58:56.922Z,38.29
2018-10-18T08:01:29.571Z,38.77
2018-10-18T08:04:01.700Z,39.29
2018-10-18T08:06:33.728Z,38.67
2018-10-18T08:09:08.511Z,39.03
2018-10-18T08:11:40.962Z,39.39
2018-10-18T08:14:13.095Z,39.55
2018-10-18T08:16:45.347Z,39.03
2018-10-18T08:19:17.707Z,39.38
2018-10-18T08:21:50.104Z,38.33
2018-10-18T08:24:22.387Z,37.20
2018-10-18T08:26:54.445Z,37.12
2018-10-18T08:29:26.906Z,36.69
2018-10-18T08:31:59.037Z,36.46
2018-10-18T08:34:31.560Z,36.57
2018-10-18T08:37:03.714Z,36.43
2018-10-18T08:39:35.943Z,36.02
2018-10-18T08:42:08.219Z,36.23
2018-10-18T08:44:40.352Z,36.21
2018-10-18T08:47:12.515Z,36.30
2018-10-18T08:49:45.495Z,36.24
2018-10-18T08:52:17.793Z,35.90
2018-10-18T08:54:49.813Z,34.87
2018-10-18T08:57:21.849Z,34.90
2018-10-18T08:59:54.112Z,34.89
2018-10-18T09:02:27.164Z,34.72
2018-10-18T09:04:59.188Z,34.56
2018-10-18T09:07:31.435Z,34.60
2018-10-18T09:10:03.866Z,33.89
2018-10-18T09:12:36.182Z,33.15
2018-10-18T09:15:09.382Z,31.63
2018-10-18T09:17:41.746Z,31.16
2018-10-18T09:20:14.340Z,31.58
2018-10-18T09:22:46.349Z,32.08
2018-10-18T09:25:18.884Z,31.40
2018-10-18T09:27:51.173Z,31.28
2018-10-18T09:30:23.683Z,31.04
2018-10-18T09:32:56.205Z,31.17
2018-10-18T09:35:28.416Z,31.06
2018-10-18T09:38:00.948Z,31.61
2018-10-18T09:40:33.113Z,31.63
2018-10-18T09:43:05.424Z,31.01
2018-10-18T09:45:37.816Z,30.99
2018-10-18T09:48:10.129Z,31.33
2018-10-18T09:50:42.815Z,32.18
2018-10-18T09:53:15.988Z,33.90
2018-10-18T09:55:48.556Z,34.93
2018-10-18T09:58:20.996Z,35.20
2018-10-18T10:00:58.780Z,34.97
2018-10-18T10:03:30.936Z,34.26
2018-10-18T10:06:02.821Z,34.60
2018-10-18T10:08:35.115Z,36.17
2018-10-18T10:11:07.264Z,36.13
2018-10-18T10:13:39.565Z,36.71
2018-10-18T10:16:12.032Z,36.82
2018-10-18T10:18:44.347Z,36.73
2018-10-18T10:21:16.875Z,37.00
2018-10-18T10:23:49.178Z,36.77
2018-10-18T10:26:21.456Z,36.54
2018-10-18T10:28:53.763Z,36.50
2018-10-18T10:31:26.027Z,36.29
2018-10-18T10:33:58.286Z,36.88
2018-10-18T10:36:30.754Z,36.57
2018-10-18T10:39:03.320Z,35.51
2018-10-18T10:41:35.639Z,35.66
2018-10-18T10:44:09.146Z,34.18
2018-10-18T10:46:42.278Z,34.44
2018-10-18T10:49:16.030Z,34.72
2018-10-18T10:51:48.649Z,33.88
2018-10-18T10:54:20.392Z,34.18
2018-10-18T10:56:52.341Z,34.09
2018-10-18T10:59:24.455Z,33.42
2018-10-18T11:04:46.428Z,32.98
2018-10-18T11:07:18.466Z,33.27
2018-10-18T11:09:50.943Z,33.62
2018-10-18T11:12:23.229Z,33.32
2018-10-18T11:14:55.742Z,32.83
2018-10-18T11:17:28.011Z,32.43
2018-10-18T11:20:01.816Z,32.49
2018-10-18T11:22:34.573Z,32.24
2018-10-18T11:25:07.211Z,32.05
2018-10-18T11:27:39.453Z,31.86
2018-10-18T11:30:11.424Z,31.62
2018-10-18T11:32:43.723Z,31.59
2018-10-18T11:35:15.670Z,31.47
2018-10-18T11:37:47.541Z,31.35
2018-10-18T11:40:20.628Z,31.35
2018-10-18T11:42:53.806Z,31.33
2018-10-18T11:45:26.122Z,31.15
2018-10-18T11:47:58.373Z,31.13
2018-10-18T11:50:30.601Z,31.12
2018-10-18T11:53:08.511Z,31.02
2018-10-18T11:55:40.943Z,30.87
2018-10-18T11:58:13.737Z,30.90
2018-10-18T12:00:45.682Z,30.78
2018-10-18T12:03:17.984Z,30.76
2018-10-18T12:05:50.968Z,30.59
2018-10-18T12:08:23.217Z,30.56
2018-10-18T12:10:55.554Z,30.42
2018-10-18T12:13:27.804Z,30.20
2018-10-18T12:15:59.776Z,30.14
2018-10-18T12:18:32.511Z,29.99
2018-10-18T12:21:04.805Z,29.91
2018-10-18T12:23:37.728Z,29.78
2018-10-18T12:26:09.944Z,29.78
2018-10-18T12:28:42.106Z,29.70
2018-10-18T12:31:14.370Z,29.60
2018-10-18T12:33:46.553Z,29.49
2018-10-18T12:36:18.732Z,29.45
2018-10-18T12:38:50.944Z,29.43
2018-10-18T12:41:23.518Z,29.40
2018-10-18T12:43:55.648Z,29.33
2018-10-18T12:46:28.014Z,29.31
2018-10-18T12:49:00.039Z,29.13
2018-10-18T12:51:32.252Z,29.18
2018-10-18T12:54:04.879Z,29.12
2018-10-18T12:56:37.121Z,29.07
2018-10-18T12:59:08.973Z,28.87
2018-10-18T13:01:41.116Z,28.94
2018-10-18T13:04:13.350Z,28.95
2018-10-18T13:06:45.637Z,28.97
2018-10-18T13:09:17.963Z,28.84
2018-10-18T13:11:49.947Z,28.84
2018-10-18T13:14:22.188Z,28.77
2018-10-18T13:16:54.469Z,28.71
2018-10-18T13:19:26.974Z,28.67
2018-10-18T13:21:59.351Z,28.82
2018-10-18T13:24:32.312Z,29.20
2018-10-18T13:27:04.793Z,29.11
2018-10-18T13:29:37.113Z,28.85
2018-10-18T13:32:09.482Z,28.68
2018-10-18T13:34:42.813Z,28.59
2018-10-18T13:37:15.182Z,28.30
2018-10-18T13:39:47.483Z,28.08
2018-10-18T13:42:19.979Z,28.00
2018-10-18T13:44:52.151Z,27.94
2018-10-18T13:47:24.358Z,28.24
2018-10-18T13:49:56.350Z,28.40
2018-10-18T13:52:28.462Z,28.30
2018-10-18T13:55:00.935Z,28.07
2018-10-18T13:57:33.324Z,27.88
2018-10-18T14:00:19.838Z,27.63
2018-10-18T14:02:53.296Z,27.58
2018-10-18T14:05:25.886Z,27.52
2018-10-18T14:07:59.192Z,27.59
2018-10-18T14:10:31.515Z,27.65
2018-10-18T14:13:03.991Z,27.63
2018-10-18T14:15:35.980Z,27.72
2018-10-18T14:18:07.974Z,27.90
2018-10-18T14:20:40.449Z,27.91
2018-10-18T14:24:15.787Z,27.91
2018-10-18T14:26:48.152Z,27.80
2018-10-18T14:29:20.656Z,27.65
2018-10-18T14:31:52.892Z,27.52
2018-10-18T14:34:25.071Z,27.56
2018-10-18T14:36:57.372Z,27.43
2018-10-18T14:39:29.593Z,27.50
2018-10-18T14:42:01.497Z,27.63
2018-10-18T14:44:33.746Z,27.59
2018-10-18T14:47:06.174Z,27.55
2018-10-18T14:49:38.553Z,27.40
2018-10-18T14:52:10.732Z,27.35
2018-10-18T14:54:43.012Z,27.33
2018-10-18T14:57:16.270Z,27.29
2018-10-18T14:59:48.684Z,27.24
2018-10-18T15:02:20.925Z,27.15
2018-10-18T15:04:53.804Z,27.07
2018-10-18T15:07:26.140Z,26.99
2018-10-18T15:09:58.210Z,27.09
2018-10-18T15:12:30.437Z,27.08
2018-10-18T15:15:02.592Z,27.09
2018-10-18T15:17:34.703Z,27.23
2018-10-18T15:20:07.763Z,27.19
2018-10-18T15:22:40.642Z,27.15
2018-10-18T15:25:13.714Z,27.12
2018-10-18T15:27:46.180Z,27.14
2018-10-18T15:30:18.367Z,27.15
2018-10-18T15:32:51.178Z,27.16
2018-10-18T15:35:23.663Z,27.09
2018-10-18T15:37:56.889Z,26.94
2018-10-18T15:40:29.223Z,26.90
2018-10-18T15:43:01.597Z,26.81
2018-10-18T15:45:34.114Z,26.76
2018-10-18T15:48:06.278Z,26.67
2018-10-18T15:50:38.458Z,26.47
2018-10-18T15:53:10.569Z,26.56
2018-10-18T15:55:42.841Z,26.62
2018-10-18T15:58:15.317Z,26.64
2018-10-18T16:00:47.917Z,26.73
2018-10-18T16:03:20.016Z,26.73
2018-10-18T16:05:52.272Z,26.57
2018-10-18T16:08:24.419Z,26.61
2018-10-18T16:10:56.818Z,26.54
2018-10-18T16:13:29.018Z,26.46
2018-10-18T16:16:01.232Z,26.42
2018-10-18T16:18:33.480Z,26.38
2018-10-18T16:21:05.988Z,26.34
2018-10-18T16:23:38.164Z,26.42
2018-10-18T16:26:10.530Z,26.38
2018-10-18T16:28:43.142Z,26.37
2018-10-18T16:31:15.658Z,26.33
2018-10-18T16:33:47.813Z,26.52
2018-10-18T16:36:20.656Z,26.60
2018-10-18T16:38:53.353Z,26.44
2018-10-18T16:41:26.237Z,26.39
2018-10-18T16:43:58.393Z,26.32
2018-10-18T16:46:30.804Z,26.39
2018-10-18T16:49:03.269Z,26.50
2018-10-18T16:51:35.543Z,26.43
2018-10-18T16:54:08.444Z,26.15
2018-10-18T16:56:40.739Z,26.11
2018-10-18T16:59:13.324Z,25.97
2018-10-18T17:01:45.639Z,25.94
2018-10-18T17:04:17.667Z,25.93
2018-10-18T17:06:49.756Z,25.92
2018-10-18T17:09:22.238Z,25.87
2018-10-18T17:11:54.483Z,25.94
2018-10-18T17:14:26.927Z,25.86
2018-10-18T17:16:59.278Z,25.90
2018-10-18T17:19:31.545Z,25.84
2018-10-18T17:22:03.685Z,25.85
2018-10-18T17:24:36.153Z,25.82
2018-10-18T17:27:08.437Z,25.76
2018-10-18T17:29:41.176Z,25.66
2018-10-18T17:32:13.450Z,25.60
2018-10-18T17:34:45.754Z,25.60
2018-10-18T17:37:17.944Z,25.60
2018-10-18T17:39:50.699Z,25.60
2018-10-18T17:42:22.842Z,26.09
2018-10-18T17:44:54.966Z,26.27
2018-10-18T17:47:27.124Z,26.42
2018-10-18T17:49:59.237Z,26.57
2018-10-18T17:52:31.611Z,26.53
2018-10-18T17:55:03.767Z,26.53
2018-10-18T17:57:36.372Z,26.55
2018-10-18T18:00:11.977Z,26.74
2018-10-18T18:02:44.431Z,26.69
2018-10-18T18:05:16.522Z,26.77
2018-10-18T18:07:48.740Z,26.73
2018-10-18T18:10:20.872Z,26.63
2018-10-18T18:12:53.423Z,26.52
2018-10-18T18:15:25.547Z,26.48
2018-10-18T18:17:58.452Z,26.49
2018-10-18T18:20:31.485Z,26.57
2018-10-18T18:23:03.810Z,26.57
2018-10-18T18:25:35.790Z,26.52
2018-10-18T18:28:07.878Z,26.57
2018-10-18T18:30:40.358Z,26.54
2018-10-18T18:33:12.652Z,26.50
2018-10-18T18:35:44.714Z,26.37
2018-10-18T18:38:17.139Z,26.34
2018-10-18T18:40:49.372Z,26.26
2018-10-18T18:43:21.460Z,26.18
2018-10-18T18:45:53.568Z,26.15
2018-10-18T18:48:25.455Z,26.06
2018-10-18T18:50:57.602Z,25.95
2018-10-18T18:53:29.940Z,25.92
2018-10-18T18:56:02.082Z,25.82
2018-10-18T18:58:34.357Z,25.81
2018-10-18T19:01:07.038Z,25.71
2018-10-18T19:03:39.405Z,25.64
2018-10-18T19:06:11.757Z,25.55
2018-10-18T19:08:44.029Z,25.49
2018-10-18T19:11:16.185Z,25.42
2018-10-18T19:13:48.287Z,25.37
2018-10-18T19:16:20.678Z,25.35
2018-10-18T19:18:52.718Z,25.18
2018-10-18T19:21:25.268Z,25.17
2018-10-18T19:23:57.620Z,25.11
2018-10-18T19:26:29.733Z,25.02
2018-10-18T19:29:02.071Z,24.98
2018-10-18T19:31:34.741Z,24.87
2018-10-18T19:34:07.165Z,24.90
2018-10-18T19:36:39.233Z,24.85
2018-10-18T19:39:11.515Z,24.80
2018-10-18T19:41:43.388Z,24.77
2018-10-18T19:44:15.692Z,24.72
2018-10-18T19:46:47.893Z,24.71
2018-10-18T19:49:20.214Z,24.68
2018-10-18T19:51:52.284Z,24.67
2018-10-18T19:54:24.358Z,24.68
2018-10-18T19:56:57.720Z,24.65
2018-10-18T19:59:29.595Z,24.64
2018-10-18T20:02:02.478Z,24.68
2018-10-18T20:04:34.850Z,24.65
2018-10-18T20:07:06.992Z,24.60
2018-10-18T20:09:39.117Z,24.60
2018-10-18T20:12:11.159Z,24.61
2018-10-18T20:14:43.387Z,24.54
2018-10-18T20:17:15.421Z,24.43
2018-10-18T20:19:47.395Z,24.41
2018-10-18T20:22:19.378Z,24.44
2018-10-18T20:24:51.638Z,24.48
2018-10-18T20:27:23.741Z,24.45
2018-10-18T20:29:55.853Z,24.42
2018-10-18T20:32:28.335Z,24.37
2018-10-18T20:35:00.444Z,24.32
2018-10-18T20:37:32.416Z,24.36
2018-10-18T20:40:04.703Z,24.29
2018-10-18T20:42:36.560Z,24.32
2018-10-18T20:45:09.391Z,24.27
2018-10-18T20:47:41.444Z,24.25
2018-10-18T20:50:14.118Z,24.20
2018-10-18T20:52:46.194Z,24.17
2018-10-18T20:55:18.020Z,24.13
2018-10-18T20:57:50.317Z,24.08
2018-10-18T21:00:22.379Z,24.11
2018-10-18T21:02:55.077Z,24.04
2018-10-18T21:05:27.757Z,24.00
2018-10-18T21:07:59.697Z,24.02
2018-10-18T21:10:31.903Z,23.95
2018-10-18T21:13:03.985Z,23.95
2018-10-18T21:15:36.064Z,23.91
2018-10-18T21:18:08.014Z,23.87
2018-10-18T21:20:40.140Z,23.82
2018-10-18T21:23:12.210Z,23.78
2018-10-18T21:25:44.450Z,23.80
2018-10-18T21:28:16.305Z,23.86
2018-10-18T21:30:48.396Z,23.84
2018-10-18T21:33:20.678Z,23.74
2018-10-18T21:35:52.855Z,23.74
2018-10-18T21:38:24.585Z,23.76
2018-10-18T21:40:56.652Z,23.73
2018-10-18T21:43:28.667Z,23.73
2018-10-18T21:46:00.810Z,23.62
2018-10-18T21:48:36.437Z,23.60
2018-10-18T21:51:08.399Z,23.49
2018-10-18T21:53:40.588Z,23.46
2018-10-18T21:56:12.721Z,23.48
2018-10-18T21:58:44.790Z,23.47
2018-10-18T22:01:16.925Z,23.48
2018-10-18T22:03:49.732Z,23.46
2018-10-18T22:06:21.869Z,23.48
2018-10-18T22:08:53.694Z,23.45
2018-10-18T22:11:25.825Z,23.47
2018-10-18T22:13:57.819Z,23.47
2018-10-18T22:16:29.871Z,23.53
2018-10-18T22:19:02.041Z,23.57
2018-10-18T22:21:34.136Z,23.56
2018-10-18T22:24:06.021Z,23.59
2018-10-18T22:26:38.114Z,23.50
2018-10-18T22:29:10.332Z,23.49
2018-10-18T22:31:42.424Z,23.39
2018-10-18T22:34:14.991Z,23.32
2018-10-18T22:36:47.208Z,23.43
2018-10-18T22:39:19.289Z,23.41
2018-10-18T22:41:51.521Z,23.36
2018-10-18T22:44:23.586Z,23.31
2018-10-18T22:46:55.626Z,23.24
2018-10-18T22:49:27.733Z,23.26
2018-10-18T22:51:59.810Z,23.25
2018-10-18T22:54:31.790Z,23.23
2018-10-18T22:57:03.948Z,23.13
2018-10-18T22:59:35.924Z,23.09
2018-10-18T23:02:07.945Z,23.12
2018-10-18T23:04:40.466Z,23.06
2018-10-18T23:07:12.470Z,23.08
2018-10-18T23:09:44.428Z,23.06
2018-10-18T23:12:16.339Z,23.03
2018-10-18T23:14:48.446Z,23.03
2018-10-18T23:17:20.426Z,23.01
2018-10-18T23:19:52.522Z,23.00
2018-10-18T23:22:24.494Z,22.92
2018-10-18T23:24:56.502Z,22.94
2018-10-18T23:27:32.234Z,23.00
2018-10-18T23:30:04.311Z,22.77
2018-10-18T23:32:36.695Z,22.64
2018-10-18T23:35:09.244Z,22.80
2018-10-18T23:37:41.956Z,22.76
2018-10-18T23:40:13.736Z,22.81
2018-10-18T23:42:45.799Z,22.84
2018-10-18T23:45:21.175Z,22.84
2018-10-18T23:47:54.025Z,22.85
2018-10-18T23:50:26.059Z,22.87
2018-10-18T23:52:58.127Z,22.93
2018-10-18T23:55:30.171Z,22.93
2018-10-18T23:58:02.689Z,22.91
